Woodlawn, Tennessee
Current Conditions -  °F | °C
As of 11:52 AM on Friday 24 Oct 2014 (Local Time) from KCKV Reporting Station
Overcast Overcast  
Wind Chill: 63°   Ceiling: 5500
Heat Index: 63°   Visibility: 10mi
Dew Point: 44°   Wind: 5mph
Humidity: 50%   Direction: 270°W
Pressure: 30.13"   Gusts: NA
Location:  36.54°N, 87.51°W
Report Text: KCKV 241652Z AUTO 27004KT 10SM SCT044 OVC055 17/07 A3013 RMK AO2 SLP202 T01720067
Loading
Personal Weather Stations






























Interactive Weather Map
Tropical Storm Tracking
New forecast layout! Learn more

10-Day Weather Forecast

Advertisements
Track Severe Weather on mobile